createdAt,value
2023-06-29T00:00:58.585Z,97.42
2023-06-29T00:03:13.041Z,97.51
2023-06-29T00:05:07.237Z,97.37
2023-06-29T00:07:04.610Z,97.29
2023-06-29T00:08:57.813Z,97.30
2023-06-29T00:10:52.284Z,97.35
2023-06-29T00:12:45.347Z,97.26
2023-06-29T00:14:38.393Z,97.30
2023-06-29T00:16:32.475Z,97.25
2023-06-29T00:18:29.319Z,97.29
2023-06-29T00:20:29.906Z,97.36
2023-06-29T00:22:22.976Z,97.34
2023-06-29T00:24:16.273Z,97.50
2023-06-29T00:26:09.318Z,97.55
2023-06-29T00:28:03.159Z,97.53
2023-06-29T00:29:56.211Z,97.49
2023-06-29T00:31:49.575Z,97.52
2023-06-29T00:33:44.785Z,97.50
2023-06-29T00:35:38.119Z,97.66
2023-06-29T00:37:31.170Z,97.72
2023-06-29T00:39:24.217Z,97.62
2023-06-29T00:41:17.476Z,97.66
2023-06-29T00:43:12.272Z,97.67
2023-06-29T00:45:06.139Z,97.84
2023-06-29T00:46:59.981Z,97.65
2023-06-29T00:48:53.878Z,97.77
2023-06-29T00:50:47.236Z,97.49
2023-06-29T00:52:41.921Z,97.39
2023-06-29T00:54:35.014Z,97.18
2023-06-29T00:56:29.356Z,97.14
2023-06-29T00:58:22.408Z,97.06
2023-06-29T01:00:16.816Z,97.09
2023-06-29T01:02:10.554Z,97.03
2023-06-29T01:04:04.080Z,96.92
2023-06-29T01:06:05.720Z,96.81
2023-06-29T01:08:28.832Z,96.70
2023-06-29T01:10:25.869Z,96.88
2023-06-29T01:12:20.124Z,96.84
2023-06-29T01:14:16.819Z,96.74
2023-06-29T01:16:12.962Z,96.74
2023-06-29T01:18:08.595Z,96.82
2023-06-29T01:20:02.414Z,96.62
2023-06-29T01:22:04.061Z,96.74
2023-06-29T01:24:01.605Z,96.63
2023-06-29T01:25:56.698Z,96.79
2023-06-29T01:27:53.741Z,96.82
2023-06-29T01:29:46.893Z,96.97
2023-06-29T01:31:39.883Z,96.91
2023-06-29T01:33:34.452Z,96.92
2023-06-29T01:35:28.097Z,97.01
2023-06-29T01:37:26.152Z,96.99
2023-06-29T01:39:24.233Z,97.09
2023-06-29T01:41:19.102Z,97.21
2023-06-29T01:43:12.071Z,97.17
2023-06-29T01:45:10.023Z,97.13
2023-06-29T01:47:09.786Z,97.12
2023-06-29T01:49:02.909Z,97.03
2023-06-29T01:50:56.593Z,97.01
2023-06-29T01:52:49.820Z,96.96
2023-06-29T01:54:42.792Z,96.99
2023-06-29T01:56:36.321Z,97.08
2023-06-29T01:58:29.701Z,97.02
2023-06-29T02:00:22.832Z,96.96
2023-06-29T02:02:18.465Z,97.06
2023-06-29T02:04:11.907Z,97.14
2023-06-29T02:06:05.068Z,97.17
2023-06-29T02:07:58.117Z,97.35
2023-06-29T02:09:52.334Z,97.52
2023-06-29T02:11:45.338Z,97.71
2023-06-29T02:13:38.289Z,97.87
2023-06-29T02:15:31.859Z,97.85
2023-06-29T02:17:32.124Z,98.01
2023-06-29T02:19:25.113Z,97.93
2023-06-29T02:21:18.165Z,98.05
2023-06-29T02:23:11.218Z,98.07
2023-06-29T02:25:04.708Z,98.10
2023-06-29T02:26:57.831Z,98.20
2023-06-29T02:28:51.084Z,98.24
2023-06-29T02:30:44.135Z,98.27
2023-06-29T02:32:37.137Z,98.17
2023-06-29T02:34:31.771Z,98.16
2023-06-29T02:36:25.130Z,98.09
2023-06-29T02:38:18.113Z,98.00
2023-06-29T02:40:11.744Z,97.96
2023-06-29T02:42:05.121Z,97.89
2023-06-29T02:43:58.254Z,97.94
2023-06-29T02:45:51.716Z,98.03
2023-06-29T02:47:45.215Z,97.94
2023-06-29T02:49:38.842Z,97.91
2023-06-29T02:51:31.991Z,97.78
2023-06-29T02:53:29.244Z,97.76
2023-06-29T02:55:25.965Z,97.74
2023-06-29T02:57:19.129Z,97.62
2023-06-29T02:59:12.385Z,97.60
2023-06-29T03:01:05.458Z,97.58
2023-06-29T03:03:02.335Z,97.42
2023-06-29T03:04:55.649Z,97.44
2023-06-29T03:06:48.922Z,97.51
2023-06-29T03:08:41.969Z,97.37
2023-06-29T03:10:35.728Z,97.30
2023-06-29T03:12:29.372Z,97.19
2023-06-29T03:14:23.455Z,97.06
2023-06-29T03:16:16.602Z,97.09
2023-06-29T03:18:10.243Z,97.09
2023-06-29T03:20:04.141Z,96.96
2023-06-29T03:21:57.289Z,96.99
2023-06-29T03:23:50.971Z,96.91
2023-06-29T03:25:44.212Z,96.93
2023-06-29T03:27:38.592Z,96.81
2023-06-29T03:29:31.848Z,96.73
2023-06-29T03:31:24.852Z,96.75
2023-06-29T03:33:18.055Z,96.61
2023-06-29T03:35:11.039Z,96.67
2023-06-29T03:37:04.262Z,96.69
2023-06-29T03:38:57.233Z,96.54
2023-06-29T03:40:50.567Z,96.40
2023-06-29T03:42:43.713Z,96.56
2023-06-29T03:44:37.789Z,96.38
2023-06-29T03:46:30.836Z,96.06
2023-06-29T03:48:28.837Z,96.01
2023-06-29T03:50:21.957Z,95.92
2023-06-29T03:52:15.213Z,95.84
2023-06-29T03:54:08.262Z,95.78
2023-06-29T03:56:01.416Z,95.44
2023-06-29T03:57:56.005Z,95.21
2023-06-29T03:59:48.952Z,95.18
2023-06-29T04:01:41.938Z,95.23
2023-06-29T04:03:35.228Z,95.15
2023-06-29T04:05:28.612Z,95.15
2023-06-29T04:07:21.793Z,94.97
2023-06-29T04:09:14.819Z,95.09
2023-06-29T04:11:09.154Z,95.56
2023-06-29T04:13:03.376Z,95.54
2023-06-29T04:14:56.325Z,95.33
2023-06-29T04:16:49.509Z,94.86
2023-06-29T04:18:42.497Z,94.37
2023-06-29T04:20:37.312Z,93.90
2023-06-29T04:22:40.099Z,93.43
2023-06-29T04:24:33.681Z,93.13
2023-06-29T04:26:29.390Z,92.93
2023-06-29T04:28:22.451Z,92.56
2023-06-29T04:30:18.984Z,91.93
2023-06-29T04:32:12.229Z,92.02
2023-06-29T04:34:05.695Z,92.03
2023-06-29T04:35:58.633Z,91.63
2023-06-29T04:37:51.667Z,91.62
2023-06-29T04:39:44.647Z,91.49
2023-06-29T04:41:37.867Z,91.45
2023-06-29T04:43:34.222Z,91.04
2023-06-29T04:45:27.361Z,90.64
2023-06-29T04:47:20.534Z,90.59
2023-06-29T04:49:13.788Z,89.98
2023-06-29T04:51:07.089Z,90.21
2023-06-29T04:53:00.575Z,90.07
2023-06-29T04:54:53.627Z,90.05
2023-06-29T04:56:51.086Z,89.78
2023-06-29T04:58:44.072Z,89.59
2023-06-29T05:00:37.193Z,89.13
2023-06-29T05:02:30.331Z,88.94
2023-06-29T05:04:23.496Z,88.68
2023-06-29T05:06:16.953Z,88.39
2023-06-29T05:08:10.026Z,88.36
2023-06-29T05:10:03.298Z,88.29
2023-06-29T05:11:56.413Z,87.95
2023-06-29T05:13:49.464Z,88.13
2023-06-29T05:15:43.443Z,87.95
2023-06-29T05:17:37.729Z,87.68
2023-06-29T05:19:30.866Z,87.64
2023-06-29T05:21:24.016Z,87.26
2023-06-29T05:23:19.107Z,86.74
2023-06-29T05:25:12.458Z,86.15
2023-06-29T05:27:06.041Z,86.23
2023-06-29T05:29:05.114Z,85.75
2023-06-29T05:30:59.362Z,85.03
2023-06-29T05:32:53.252Z,84.95
2023-06-29T05:34:46.349Z,84.98
2023-06-29T05:36:39.389Z,85.33
2023-06-29T05:38:32.435Z,84.74
2023-06-29T05:40:25.723Z,84.27
2023-06-29T05:42:18.840Z,84.05
2023-06-29T05:44:11.900Z,84.09
2023-06-29T05:46:04.983Z,83.77
2023-06-29T05:47:58.118Z,82.77
2023-06-29T05:49:52.693Z,83.07
2023-06-29T05:51:46.037Z,81.55
2023-06-29T05:53:38.990Z,81.14
2023-06-29T05:55:32.032Z,81.34
2023-06-29T05:57:25.012Z,80.80
2023-06-29T05:59:18.071Z,80.91
2023-06-29T06:01:11.221Z,80.35
2023-06-29T06:03:05.416Z,79.50
2023-06-29T06:04:58.721Z,79.40
2023-06-29T06:06:52.242Z,79.40
2023-06-29T06:08:45.900Z,79.12
2023-06-29T06:10:39.532Z,78.06
2023-06-29T06:12:33.075Z,77.68
2023-06-29T06:14:26.645Z,77.89
2023-06-29T06:16:19.964Z,77.75
2023-06-29T06:18:13.374Z,77.49
2023-06-29T06:20:08.069Z,77.87
2023-06-29T06:22:01.642Z,77.77
2023-06-29T06:23:56.528Z,76.41
2023-06-29T06:25:50.618Z,76.43
2023-06-29T06:27:44.786Z,75.75
2023-06-29T06:29:39.125Z,75.61
2023-06-29T06:31:34.872Z,74.49
2023-06-29T06:33:31.482Z,74.07
2023-06-29T06:35:25.190Z,73.73
2023-06-29T06:37:19.574Z,73.37
2023-06-29T06:39:20.501Z,72.97
2023-06-29T06:41:14.259Z,72.68
2023-06-29T06:43:09.457Z,71.58
2023-06-29T06:45:14.170Z,71.72
2023-06-29T06:47:11.001Z,72.06
2023-06-29T06:49:06.890Z,71.37
2023-06-29T06:51:06.137Z,71.35
2023-06-29T06:53:00.260Z,70.91
2023-06-29T06:55:08.358Z,70.96
2023-06-29T06:57:20.654Z,70.95
2023-06-29T06:59:59.221Z,70.12
2023-06-29T07:01:59.169Z,69.82
2023-06-29T07:03:53.866Z,69.04
2023-06-29T07:05:48.228Z,69.22
2023-06-29T07:07:42.019Z,68.20
2023-06-29T07:09:35.849Z,68.20
2023-06-29T07:16:20.264Z,65.35
2023-06-29T07:18:14.610Z,65.53
2023-06-29T07:24:07.105Z,64.22
2023-06-29T07:26:08.401Z,63.56
2023-06-29T07:28:04.828Z,63.36
2023-06-29T07:29:58.092Z,63.79
2023-06-29T07:31:51.469Z,63.81
2023-06-29T07:33:45.119Z,62.18
2023-06-29T07:35:38.764Z,63.06
2023-06-29T07:37:32.397Z,62.84
2023-06-29T07:39:25.905Z,63.21
2023-06-29T07:41:22.431Z,62.45
2023-06-29T07:43:15.803Z,61.88
2023-06-29T07:45:17.135Z,60.62
2023-06-29T07:47:12.867Z,60.11
2023-06-29T07:49:06.298Z,58.58
2023-06-29T07:51:01.265Z,58.38
2023-06-29T07:52:55.473Z,58.48
2023-06-29T07:54:48.625Z,58.65
2023-06-29T07:58:40.450Z,58.19
2023-06-29T08:00:33.754Z,57.52
2023-06-29T08:02:26.802Z,57.35
2023-06-29T08:06:46.590Z,56.25
2023-06-29T08:08:33.189Z,56.36
2023-06-29T08:10:26.513Z,55.84
2023-06-29T08:12:19.675Z,55.41
2023-06-29T08:14:12.821Z,57.44
2023-06-29T08:16:06.598Z,56.18
2023-06-29T08:17:59.675Z,55.06
2023-06-29T08:19:52.689Z,53.93
2023-06-29T08:21:48.764Z,52.94
2023-06-29T08:23:42.171Z,54.02
2023-06-29T08:25:35.221Z,54.19
2023-06-29T08:27:28.279Z,53.15
2023-06-29T08:29:21.316Z,53.68
2023-06-29T08:31:14.568Z,52.51
2023-06-29T08:33:08.014Z,53.51
2023-06-29T08:35:01.135Z,53.19
2023-06-29T08:36:54.241Z,51.91
2023-06-29T08:38:48.215Z,51.32
2023-06-29T08:40:42.152Z,52.21
2023-06-29T08:42:38.438Z,51.12
2023-06-29T08:44:31.672Z,50.42
2023-06-29T08:46:26.631Z,49.75
2023-06-29T08:48:19.814Z,49.71
2023-06-29T08:50:13.077Z,49.36
2023-06-29T08:52:07.659Z,47.68
2023-06-29T08:54:01.530Z,49.19
2023-06-29T08:55:54.981Z,50.37
2023-06-29T08:57:48.139Z,49.78
2023-06-29T08:59:41.850Z,50.54
2023-06-29T09:01:35.249Z,50.31
2023-06-29T09:03:31.009Z,49.52
2023-06-29T09:05:24.953Z,49.22
2023-06-29T09:07:18.325Z,48.71
2023-06-29T09:09:11.358Z,48.76
2023-06-29T09:11:05.017Z,48.15
2023-06-29T09:12:58.379Z,47.09
2023-06-29T09:14:52.462Z,47.69
2023-06-29T09:16:57.724Z,46.52
2023-06-29T09:18:55.499Z,48.01
2023-06-29T09:20:50.633Z,48.22
2023-06-29T09:22:44.537Z,48.16
2023-06-29T09:24:43.698Z,47.94
2023-06-29T09:26:51.146Z,48.36
2023-06-29T09:28:50.230Z,47.74
2023-06-29T09:30:43.663Z,47.68
2023-06-29T09:32:41.333Z,47.90
2023-06-29T09:34:34.592Z,47.28
2023-06-29T09:36:28.544Z,46.76
2023-06-29T09:38:21.834Z,46.81
2023-06-29T09:40:15.162Z,47.57
2023-06-29T09:42:11.039Z,47.79
2023-06-29T09:44:08.244Z,47.79
2023-06-29T09:46:08.921Z,47.68
2023-06-29T09:50:02.604Z,46.25
2023-06-29T09:52:06.523Z,46.11
2023-06-29T09:54:23.806Z,46.17
2023-06-29T09:56:35.803Z,44.68
2023-06-29T09:58:32.352Z,45.81
2023-06-29T10:00:29.484Z,45.59
2023-06-29T10:02:22.829Z,46.18
2023-06-29T10:04:19.126Z,45.78
2023-06-29T10:06:25.499Z,46.19
2023-06-29T10:08:36.277Z,46.69
2023-06-29T10:10:39.020Z,44.67
2023-06-29T10:12:33.744Z,45.06
2023-06-29T10:14:27.477Z,44.94
2023-06-29T10:16:22.895Z,43.72
2023-06-29T10:18:33.043Z,44.36
2023-06-29T10:20:28.174Z,44.47
2023-06-29T10:22:22.454Z,44.39
2023-06-29T10:24:20.073Z,44.93
2023-06-29T10:26:13.850Z,45.80
2023-06-29T10:28:08.931Z,45.64
2023-06-29T10:30:06.423Z,45.34
2023-06-29T10:32:00.624Z,44.65
2023-06-29T10:34:59.193Z,44.57
2023-06-29T10:37:06.687Z,44.57
2023-06-29T10:39:55.268Z,42.58
2023-06-29T10:42:28.264Z,43.49
2023-06-29T10:44:21.702Z,44.19
2023-06-29T10:46:17.636Z,42.94
2023-06-29T10:48:25.463Z,42.98
2023-06-29T10:50:29.987Z,43.03
2023-06-29T10:52:25.948Z,43.59
2023-06-29T10:54:22.507Z,42.86
2023-06-29T10:56:30.781Z,42.53
2023-06-29T10:58:40.201Z,42.58
2023-06-29T11:00:33.429Z,41.61
2023-06-29T11:02:26.640Z,42.52
2023-06-29T11:04:20.612Z,42.65
2023-06-29T11:06:24.801Z,42.71
2023-06-29T11:08:23.128Z,43.47
2023-06-29T11:10:16.238Z,42.88
2023-06-29T11:12:09.447Z,41.66
2023-06-29T11:14:03.929Z,41.77
2023-06-29T11:15:57.996Z,41.92
2023-06-29T11:17:52.900Z,41.96
2023-06-29T11:19:47.100Z,42.43
2023-06-29T11:21:42.198Z,42.40
2023-06-29T11:23:35.329Z,43.85
2023-06-29T11:25:31.956Z,43.89
2023-06-29T11:27:25.131Z,43.04
2023-06-29T11:29:19.190Z,42.12
2023-06-29T11:31:12.827Z,42.62
2023-06-29T11:33:33.615Z,42.42
2023-06-29T11:35:30.732Z,43.59
2023-06-29T11:37:24.845Z,43.06
2023-06-29T11:39:19.155Z,42.46
2023-06-29T11:41:12.398Z,42.74
2023-06-29T11:43:05.762Z,43.30
2023-06-29T11:45:10.928Z,44.22
2023-06-29T11:47:18.512Z,43.97
2023-06-29T11:49:23.047Z,43.99
2023-06-29T11:51:17.961Z,44.12
2023-06-29T11:53:13.566Z,44.64
2023-06-29T11:55:09.435Z,44.80
2023-06-29T11:57:04.132Z,44.14
2023-06-29T11:59:17.321Z,43.71
2023-06-29T12:01:17.360Z,43.28
2023-06-29T12:03:12.231Z,42.78
2023-06-29T12:05:06.786Z,42.19
2023-06-29T12:07:00.363Z,42.11
2023-06-29T12:08:53.772Z,42.91
2023-06-29T12:10:47.233Z,42.78
2023-06-29T12:12:43.840Z,42.10
2023-06-29T12:14:37.227Z,42.99
2023-06-29T12:18:30.141Z,43.11
2023-06-29T12:20:25.816Z,42.17
2023-06-29T12:22:22.901Z,43.30
2023-06-29T12:24:19.823Z,43.13
2023-06-29T12:26:16.492Z,44.09
2023-06-29T12:28:10.088Z,43.72
2023-06-29T12:30:04.042Z,44.26
2023-06-29T12:32:02.033Z,44.92
2023-06-29T12:33:55.399Z,44.13
2023-06-29T12:35:49.171Z,44.30
2023-06-29T12:37:43.107Z,44.25
2023-06-29T12:39:36.389Z,44.04
2023-06-29T12:41:29.758Z,43.98
2023-06-29T12:43:22.977Z,43.89
2023-06-29T12:45:16.037Z,44.45
2023-06-29T12:47:09.533Z,44.11
2023-06-29T12:49:02.945Z,43.69
2023-06-29T12:51:01.251Z,43.70
2023-06-29T12:52:55.023Z,44.48
2023-06-29T12:54:48.443Z,43.80
2023-06-29T12:56:41.403Z,44.44
2023-06-29T12:58:35.583Z,43.83
2023-06-29T13:00:28.727Z,43.79
2023-06-29T13:02:22.696Z,43.12
2023-06-29T13:04:21.894Z,43.02
2023-06-29T13:06:18.340Z,43.45
2023-06-29T13:08:25.876Z,43.14
2023-06-29T13:10:19.675Z,42.81
2023-06-29T13:12:15.984Z,42.51
2023-06-29T13:14:09.267Z,41.98
2023-06-29T13:16:02.414Z,41.51
2023-06-29T13:17:56.201Z,42.00
2023-06-29T13:19:49.742Z,42.73
2023-06-29T13:21:42.850Z,43.25
2023-06-29T13:23:36.112Z,43.07
2023-06-29T13:25:29.305Z,43.40
2023-06-29T13:27:23.688Z,43.17
2023-06-29T13:29:17.248Z,43.77
2023-06-29T13:31:10.234Z,43.69
2023-06-29T13:33:03.971Z,43.21
2023-06-29T13:34:57.645Z,43.94
2023-06-29T13:36:50.680Z,44.64
2023-06-29T13:38:43.794Z,44.48
2023-06-29T13:40:36.883Z,43.84
2023-06-29T13:42:29.833Z,43.48
2023-06-29T13:44:23.661Z,43.69
2023-06-29T13:46:16.657Z,43.51
2023-06-29T13:48:10.021Z,42.60
2023-06-29T13:50:03.384Z,42.26
2023-06-29T13:51:56.419Z,42.45
2023-06-29T13:53:50.807Z,42.79
2023-06-29T13:55:47.554Z,42.72
2023-06-29T13:57:40.726Z,43.34
2023-06-29T13:59:33.963Z,43.07
2023-06-29T14:01:27.017Z,42.09
2023-06-29T14:03:20.143Z,42.39
2023-06-29T14:05:13.508Z,42.33
2023-06-29T14:07:08.136Z,42.71
2023-06-29T14:09:01.978Z,42.65
2023-06-29T14:10:56.039Z,43.54
2023-06-29T14:12:49.086Z,44.08
2023-06-29T14:14:45.823Z,42.84
2023-06-29T14:16:39.017Z,43.24
2023-06-29T14:18:32.258Z,43.44
2023-06-29T14:20:25.637Z,43.68
2023-06-29T14:22:19.379Z,42.75
2023-06-29T14:24:12.617Z,43.48
2023-06-29T14:26:05.604Z,43.83
2023-06-29T14:27:58.716Z,43.90
2023-06-29T14:29:51.769Z,42.88
2023-06-29T14:31:45.690Z,42.16
2023-06-29T14:33:39.172Z,42.10
2023-06-29T14:35:35.772Z,41.58
2023-06-29T14:37:30.045Z,41.11
2023-06-29T14:39:23.283Z,40.56
2023-06-29T14:41:16.418Z,41.42
2023-06-29T14:43:09.474Z,42.53
2023-06-29T14:45:02.519Z,42.58
2023-06-29T14:46:56.706Z,41.86
2023-06-29T14:48:49.654Z,42.04
2023-06-29T14:50:43.928Z,42.13
2023-06-29T14:52:39.672Z,42.39
2023-06-29T14:54:32.687Z,42.23
2023-06-29T14:56:25.881Z,42.86
2023-06-29T14:58:19.539Z,42.61
2023-06-29T15:00:13.440Z,42.55
2023-06-29T15:02:06.555Z,42.53
2023-06-29T15:03:59.757Z,42.47
2023-06-29T15:05:53.055Z,42.85
2023-06-29T15:07:46.161Z,42.64
2023-06-29T15:09:39.348Z,43.14
2023-06-29T15:11:32.412Z,43.07
2023-06-29T15:13:25.446Z,42.91
2023-06-29T15:15:19.153Z,42.78
2023-06-29T15:17:12.159Z,42.70
2023-06-29T15:19:05.226Z,42.39
2023-06-29T15:20:58.260Z,41.99
2023-06-29T15:22:51.317Z,42.47
2023-06-29T15:24:44.373Z,42.27
2023-06-29T15:26:37.425Z,42.15
2023-06-29T15:28:30.467Z,42.75
2023-06-29T15:30:23.451Z,42.91
2023-06-29T15:32:16.577Z,43.33
2023-06-29T15:34:09.622Z,43.68
2023-06-29T15:36:02.875Z,43.89
2023-06-29T15:37:55.924Z,43.94
2023-06-29T15:39:49.486Z,43.90
2023-06-29T15:41:50.960Z,44.12
2023-06-29T15:43:45.930Z,43.57
2023-06-29T15:45:39.014Z,43.28
2023-06-29T15:47:33.620Z,43.06
2023-06-29T15:49:27.746Z,43.06
2023-06-29T15:51:21.759Z,43.82
2023-06-29T15:53:15.044Z,43.64
2023-06-29T15:55:08.643Z,44.16
2023-06-29T15:57:01.907Z,44.22
2023-06-29T15:58:55.898Z,44.06
2023-06-29T16:00:48.918Z,43.84
2023-06-29T16:02:42.031Z,43.88
2023-06-29T16:04:36.122Z,44.16
2023-06-29T16:06:31.142Z,44.13
2023-06-29T16:08:24.327Z,44.23
2023-06-29T16:10:17.342Z,43.77
2023-06-29T16:12:10.908Z,44.04
2023-06-29T16:14:03.961Z,44.20
2023-06-29T16:15:56.935Z,43.80
2023-06-29T16:17:50.004Z,43.27
2023-06-29T16:19:43.310Z,44.04
2023-06-29T16:21:36.364Z,43.54
2023-06-29T16:23:29.928Z,43.43
2023-06-29T16:25:25.333Z,43.19
2023-06-29T16:27:18.385Z,43.56
2023-06-29T16:29:11.435Z,43.67
2023-06-29T16:31:04.521Z,43.78
2023-06-29T16:32:57.787Z,43.79
2023-06-29T16:34:50.894Z,43.94
2023-06-29T16:36:43.967Z,44.05
2023-06-29T16:38:37.001Z,43.54
2023-06-29T16:40:29.990Z,43.66
2023-06-29T16:42:22.991Z,43.24
2023-06-29T16:44:16.048Z,43.22
2023-06-29T16:46:09.328Z,43.75
2023-06-29T16:48:02.404Z,44.04
2023-06-29T16:49:56.454Z,44.10
2023-06-29T16:51:49.791Z,44.30
2023-06-29T16:53:42.762Z,44.60
2023-06-29T16:55:36.095Z,44.43
2023-06-29T16:57:29.173Z,44.55
2023-06-29T16:59:22.315Z,44.81
2023-06-29T17:01:15.497Z,44.42
2023-06-29T17:03:08.754Z,44.50
2023-06-29T17:05:01.955Z,44.95
2023-06-29T17:06:55.034Z,45.17
2023-06-29T17:08:48.369Z,45.19
2023-06-29T17:10:41.409Z,45.29
2023-06-29T17:12:34.494Z,44.97
2023-06-29T17:14:27.734Z,45.58
2023-06-29T17:16:21.324Z,45.65
2023-06-29T17:18:15.519Z,45.79
2023-06-29T17:20:09.262Z,45.84
2023-06-29T17:22:02.815Z,45.84
2023-06-29T17:23:56.573Z,45.69
2023-06-29T17:25:51.715Z,46.27
2023-06-29T17:27:44.811Z,46.07
2023-06-29T17:29:39.845Z,45.61
2023-06-29T17:37:19.271Z,45.02
2023-06-29T17:39:12.225Z,45.66
2023-06-29T17:41:05.588Z,45.74
2023-06-29T17:42:58.968Z,45.24
2023-06-29T17:44:51.885Z,45.00
2023-06-29T17:46:45.663Z,45.58
2023-06-29T17:48:39.148Z,45.88
2023-06-29T17:50:32.189Z,46.14
2023-06-29T17:52:25.222Z,46.04
2023-06-29T17:54:18.312Z,46.31
2023-06-29T17:56:11.830Z,46.36
2023-06-29T17:58:04.878Z,46.90
2023-06-29T17:59:58.150Z,47.22
2023-06-29T18:01:51.219Z,47.16
2023-06-29T18:03:44.763Z,47.62
2023-06-29T18:05:37.902Z,47.70
2023-06-29T18:07:30.906Z,47.66
2023-06-29T18:09:23.956Z,47.67
2023-06-29T18:11:17.999Z,47.59
2023-06-29T18:13:11.225Z,47.58
2023-06-29T18:15:08.179Z,47.54
2023-06-29T18:17:01.249Z,47.86
2023-06-29T18:18:54.373Z,48.29
2023-06-29T18:20:48.045Z,48.25
2023-06-29T18:22:41.091Z,48.04
2023-06-29T18:24:34.104Z,48.22
2023-06-29T18:26:27.014Z,48.57
2023-06-29T18:28:20.239Z,49.15
2023-06-29T18:30:13.911Z,49.15
2023-06-29T18:32:07.588Z,49.43
2023-06-29T18:34:00.623Z,49.72
2023-06-29T18:35:53.681Z,49.83
2023-06-29T18:37:46.929Z,49.74
2023-06-29T18:39:39.887Z,49.63
2023-06-29T18:41:37.893Z,49.88
2023-06-29T18:43:30.791Z,49.90
2023-06-29T18:45:26.259Z,50.36
2023-06-29T18:47:19.701Z,50.70
2023-06-29T18:49:13.881Z,51.09
2023-06-29T18:51:06.784Z,51.09
2023-06-29T18:53:01.698Z,51.72
2023-06-29T18:54:56.980Z,51.86
2023-06-29T18:56:49.937Z,52.36
2023-06-29T18:58:42.880Z,52.37
2023-06-29T19:00:37.170Z,52.64
2023-06-29T19:02:30.225Z,52.60
2023-06-29T19:04:23.672Z,53.08
2023-06-29T19:06:16.724Z,53.65
2023-06-29T19:08:10.306Z,54.41
2023-06-29T19:10:04.366Z,54.94
2023-06-29T19:11:57.816Z,54.77
2023-06-29T19:13:50.970Z,55.22
2023-06-29T19:15:44.520Z,55.22
2023-06-29T19:17:38.013Z,55.60
2023-06-29T19:19:31.454Z,55.27
2023-06-29T19:21:32.311Z,55.44
2023-06-29T19:23:32.406Z,55.80
2023-06-29T19:25:25.368Z,55.93
2023-06-29T19:27:18.411Z,56.19
2023-06-29T19:29:12.488Z,56.28
2023-06-29T19:31:05.740Z,56.56
2023-06-29T19:33:02.475Z,56.99
2023-06-29T19:34:55.826Z,57.81
2023-06-29T19:36:50.093Z,58.05
2023-06-29T19:38:43.245Z,58.70
2023-06-29T19:40:36.339Z,58.92
2023-06-29T19:42:30.526Z,59.21
2023-06-29T19:44:23.568Z,59.28
2023-06-29T19:46:16.609Z,59.14
2023-06-29T19:48:09.884Z,59.19
2023-06-29T19:50:05.101Z,59.48
2023-06-29T19:51:59.017Z,59.15
2023-06-29T19:53:52.680Z,59.41
2023-06-29T19:55:45.920Z,59.94
2023-06-29T19:57:39.294Z,60.15
2023-06-29T19:59:32.353Z,60.63
2023-06-29T20:01:25.396Z,60.87
2023-06-29T20:03:19.553Z,60.95
2023-06-29T20:05:12.977Z,61.02
2023-06-29T20:07:06.412Z,60.79
2023-06-29T20:08:59.376Z,60.66
2023-06-29T20:10:52.394Z,60.59
2023-06-29T20:12:46.371Z,60.89
2023-06-29T20:14:39.922Z,61.07
2023-06-29T20:16:33.013Z,61.19
2023-06-29T20:18:26.644Z,60.98
2023-06-29T20:20:19.685Z,61.19
2023-06-29T20:22:13.221Z,60.93
2023-06-29T20:24:06.756Z,61.29
2023-06-29T20:25:59.864Z,61.70
2023-06-29T20:27:52.919Z,61.49
2023-06-29T20:29:47.088Z,61.81
2023-06-29T20:31:40.192Z,62.30
2023-06-29T20:33:33.291Z,62.60
2023-06-29T20:35:26.347Z,63.34
2023-06-29T20:37:20.348Z,64.01
2023-06-29T20:39:13.470Z,64.77
2023-06-29T20:41:06.517Z,65.11
2023-06-29T20:43:00.183Z,65.26
2023-06-29T20:44:57.457Z,65.53
2023-06-29T20:46:50.829Z,65.93
2023-06-29T20:48:45.662Z,66.48
2023-06-29T20:50:42.523Z,66.69
2023-06-29T20:52:35.573Z,67.08
2023-06-29T20:54:29.445Z,67.07
2023-06-29T20:56:22.699Z,67.40
2023-06-29T20:58:15.950Z,67.64
2023-06-29T21:00:13.156Z,67.61
2023-06-29T21:02:07.815Z,67.48
2023-06-29T21:04:01.377Z,67.33
2023-06-29T21:05:54.773Z,67.38
2023-06-29T21:07:48.217Z,67.52
2023-06-29T21:09:41.563Z,67.70
2023-06-29T21:11:35.531Z,67.94
2023-06-29T21:13:30.292Z,67.83
2023-06-29T21:15:23.450Z,67.84
2023-06-29T21:17:16.827Z,67.82
2023-06-29T21:19:10.157Z,68.00
2023-06-29T21:21:03.833Z,67.81
2023-06-29T21:22:56.984Z,67.91
2023-06-29T21:24:50.998Z,68.03
2023-06-29T21:26:44.570Z,67.89
2023-06-29T21:28:42.027Z,67.79
2023-06-29T21:30:37.554Z,68.07
2023-06-29T21:32:31.620Z,68.34
2023-06-29T21:34:24.925Z,68.63
2023-06-29T21:36:18.366Z,68.97
2023-06-29T21:38:11.840Z,69.12
2023-06-29T21:40:06.718Z,69.51
2023-06-29T21:42:01.021Z,69.40
2023-06-29T21:43:54.256Z,69.07
2023-06-29T21:45:47.487Z,68.80
2023-06-29T21:47:40.705Z,69.00
2023-06-29T21:49:34.020Z,68.97
2023-06-29T21:51:27.758Z,69.17
2023-06-29T21:53:21.557Z,69.40
2023-06-29T21:55:15.735Z,69.61
2023-06-29T21:57:08.993Z,69.69
2023-06-29T21:59:02.244Z,69.78
2023-06-29T22:00:55.623Z,69.82
2023-06-29T22:02:48.930Z,69.99
2023-06-29T22:04:42.329Z,70.21
2023-06-29T22:06:35.818Z,70.54
2023-06-29T22:08:29.033Z,70.53
2023-06-29T22:10:22.249Z,70.59
2023-06-29T22:12:15.754Z,70.76
2023-06-29T22:14:09.125Z,71.06
2023-06-29T22:16:02.478Z,71.30
2023-06-29T22:17:59.141Z,71.63
2023-06-29T22:20:12.524Z,71.99
2023-06-29T22:22:08.903Z,72.39
2023-06-29T22:24:01.996Z,72.86
2023-06-29T22:25:55.210Z,73.02
2023-06-29T22:27:49.161Z,73.31
2023-06-29T22:29:42.360Z,73.39
2023-06-29T22:31:35.453Z,73.44
2023-06-29T22:33:28.503Z,73.73
2023-06-29T22:35:21.631Z,73.70
2023-06-29T22:37:14.770Z,73.77
2023-06-29T22:39:07.867Z,73.76
2023-06-29T22:41:01.428Z,73.93
2023-06-29T22:42:54.543Z,74.15
2023-06-29T22:44:47.631Z,74.31
2023-06-29T22:46:40.835Z,74.59
2023-06-29T22:48:34.048Z,74.68
2023-06-29T22:50:27.394Z,74.89
2023-06-29T22:52:21.802Z,74.99
2023-06-29T22:54:15.138Z,75.01
2023-06-29T22:56:08.341Z,75.18
2023-06-29T22:58:01.553Z,75.20
2023-06-29T22:59:57.056Z,75.49
2023-06-29T23:01:51.022Z,75.82
2023-06-29T23:03:44.205Z,76.01
2023-06-29T23:05:37.430Z,76.10
2023-06-29T23:07:30.601Z,76.11
2023-06-29T23:09:24.831Z,76.14
2023-06-29T23:11:18.014Z,76.18
2023-06-29T23:13:15.812Z,76.18
2023-06-29T23:15:09.709Z,76.20
2023-06-29T23:17:04.084Z,76.27
2023-06-29T23:18:57.263Z,76.57
2023-06-29T23:20:50.335Z,76.78
2023-06-29T23:22:47.420Z,77.12
2023-06-29T23:24:42.082Z,77.24
2023-06-29T23:26:36.550Z,77.31
2023-06-29T23:28:29.700Z,77.09
2023-06-29T23:30:23.163Z,77.24
2023-06-29T23:32:16.215Z,77.17
2023-06-29T23:34:09.372Z,77.50
2023-06-29T23:36:02.419Z,77.55
2023-06-29T23:37:55.568Z,77.79
2023-06-29T23:39:49.747Z,77.86
2023-06-29T23:41:43.102Z,77.78
2023-06-29T23:43:36.138Z,77.62
2023-06-29T23:45:29.117Z,77.73
2023-06-29T23:47:22.183Z,77.89
2023-06-29T23:49:18.272Z,77.86
2023-06-29T23:51:11.831Z,77.80
2023-06-29T23:53:05.181Z,77.93
2023-06-29T23:54:58.161Z,78.24
2023-06-29T23:56:52.777Z,78.56
2023-06-29T23:58:45.876Z,78.75
